sensor_id;sensor_type;location;lat;lon;timestamp;P1;durP1;ratioP1;P2;durP2;ratioP2
14141;SDS011;7151;52.246;4.820;2024-03-06T00:01:05;14.83;;;10.10;;
14141;SDS011;7151;52.246;4.820;2024-03-06T00:03:31;17.07;;;10.17;;
14141;SDS011;7151;52.246;4.820;2024-03-06T00:05:59;14.97;;;9.53;;
14141;SDS011;7151;52.246;4.820;2024-03-06T00:08:25;15.30;;;9.17;;
14141;SDS011;7151;52.246;4.820;2024-03-06T00:10:51;15.40;;;10.20;;
14141;SDS011;7151;52.246;4.820;2024-03-06T00:13:17;13.83;;;8.67;;
14141;SDS011;7151;52.246;4.820;2024-03-06T00:15:42;14.20;;;9.27;;
14141;SDS011;7151;52.246;4.820;2024-03-06T00:18:08;15.97;;;9.50;;
14141;SDS011;7151;52.246;4.820;2024-03-06T00:20:35;13.40;;;8.80;;
14141;SDS011;7151;52.246;4.820;2024-03-06T00:23:00;13.40;;;9.23;;
14141;SDS011;7151;52.246;4.820;2024-03-06T00:25:26;13.70;;;9.10;;
14141;SDS011;7151;52.246;4.820;2024-03-06T00:27:51;13.13;;;8.57;;
14141;SDS011;7151;52.246;4.820;2024-03-06T00:30:17;15.23;;;9.20;;
14141;SDS011;7151;52.246;4.820;2024-03-06T00:32:43;14.40;;;8.87;;
14141;SDS011;7151;52.246;4.820;2024-03-06T00:35:09;14.13;;;9.20;;
14141;SDS011;7151;52.246;4.820;2024-03-06T00:37:37;12.57;;;9.60;;
14141;SDS011;7151;52.246;4.820;2024-03-06T00:40:03;14.23;;;9.50;;
14141;SDS011;7151;52.246;4.820;2024-03-06T00:42:28;12.23;;;8.20;;
14141;SDS011;7151;52.246;4.820;2024-03-06T00:44:55;13.07;;;9.50;;
14141;SDS011;7151;52.246;4.820;2024-03-06T00:47:20;16.63;;;10.13;;
14141;SDS011;7151;52.246;4.820;2024-03-06T00:49:46;13.87;;;9.50;;
14141;SDS011;7151;52.246;4.820;2024-03-06T00:52:12;16.93;;;10.30;;
14141;SDS011;7151;52.246;4.820;2024-03-06T00:54:37;13.43;;;9.60;;
14141;SDS011;7151;52.246;4.820;2024-03-06T00:57:03;17.23;;;10.67;;
14141;SDS011;7151;52.246;4.820;2024-03-06T00:59:28;15.27;;;10.37;;
14141;SDS011;7151;52.246;4.820;2024-03-06T01:01:54;17.07;;;11.20;;
14141;SDS011;7151;52.246;4.820;2024-03-06T01:04:21;12.97;;;10.27;;
14141;SDS011;7151;52.246;4.820;2024-03-06T01:06:47;17.07;;;11.20;;
14141;SDS011;7151;52.246;4.820;2024-03-06T01:09:13;15.53;;;10.07;;
14141;SDS011;7151;52.246;4.820;2024-03-06T01:11:39;16.37;;;11.07;;
14141;SDS011;7151;52.246;4.820;2024-03-06T01:14:04;19.10;;;11.87;;
14141;SDS011;7151;52.246;4.820;2024-03-06T01:16:30;16.50;;;11.30;;
14141;SDS011;7151;52.246;4.820;2024-03-06T01:18:56;22.10;;;12.60;;
14141;SDS011;7151;52.246;4.820;2024-03-06T01:21:21;17.37;;;10.80;;
14141;SDS011;7151;52.246;4.820;2024-03-06T01:23:47;17.27;;;11.00;;
14141;SDS011;7151;52.246;4.820;2024-03-06T01:26:12;20.40;;;11.37;;
14141;SDS011;7151;52.246;4.820;2024-03-06T01:28:38;20.57;;;13.00;;
14141;SDS011;7151;52.246;4.820;2024-03-06T01:31:04;19.10;;;12.40;;
14141;SDS011;7151;52.246;4.820;2024-03-06T01:33:29;19.13;;;12.13;;
14141;SDS011;7151;52.246;4.820;2024-03-06T01:35:55;19.90;;;12.90;;
14141;SDS011;7151;52.246;4.820;2024-03-06T01:38:21;18.20;;;12.20;;
14141;SDS011;7151;52.246;4.820;2024-03-06T01:40:47;21.07;;;12.87;;
14141;SDS011;7151;52.246;4.820;2024-03-06T01:43:25;23.60;;;12.83;;
14141;SDS011;7151;52.246;4.820;2024-03-06T01:45:51;19.90;;;13.27;;
14141;SDS011;7151;52.246;4.820;2024-03-06T01:48:23;21.60;;;12.33;;
14141;SDS011;7151;52.246;4.820;2024-03-06T01:50:53;17.40;;;12.07;;
14141;SDS011;7151;52.246;4.820;2024-03-06T01:53:21;18.37;;;13.10;;
14141;SDS011;7151;52.246;4.820;2024-03-06T01:55:49;19.30;;;11.87;;
14141;SDS011;7151;52.246;4.820;2024-03-06T01:58:15;20.57;;;12.40;;
14141;SDS011;7151;52.246;4.820;2024-03-06T02:00:42;20.07;;;12.50;;
14141;SDS011;7151;52.246;4.820;2024-03-06T02:03:08;19.70;;;12.80;;
14141;SDS011;7151;52.246;4.820;2024-03-06T02:05:34;19.47;;;12.33;;
14141;SDS011;7151;52.246;4.820;2024-03-06T02:08:00;19.67;;;12.17;;
14141;SDS011;7151;52.246;4.820;2024-03-06T02:10:26;20.83;;;13.23;;
14141;SDS011;7151;52.246;4.820;2024-03-06T02:12:53;16.77;;;12.73;;
14141;SDS011;7151;52.246;4.820;2024-03-06T02:15:19;20.93;;;12.20;;
14141;SDS011;7151;52.246;4.820;2024-03-06T02:17:45;18.60;;;12.17;;
14141;SDS011;7151;52.246;4.820;2024-03-06T02:20:11;19.37;;;11.63;;
14141;SDS011;7151;52.246;4.820;2024-03-06T02:22:39;19.90;;;12.17;;
14141;SDS011;7151;52.246;4.820;2024-03-06T02:25:05;16.97;;;10.90;;
14141;SDS011;7151;52.246;4.820;2024-03-06T02:27:31;19.13;;;11.77;;
14141;SDS011;7151;52.246;4.820;2024-03-06T02:29:57;16.50;;;10.93;;
14141;SDS011;7151;52.246;4.820;2024-03-06T02:32:23;18.73;;;12.43;;
14141;SDS011;7151;52.246;4.820;2024-03-06T02:34:50;17.67;;;11.70;;
14141;SDS011;7151;52.246;4.820;2024-03-06T02:37:16;17.97;;;11.67;;
14141;SDS011;7151;52.246;4.820;2024-03-06T02:39:41;19.80;;;11.53;;
14141;SDS011;7151;52.246;4.820;2024-03-06T02:42:07;15.60;;;11.43;;
14141;SDS011;7151;52.246;4.820;2024-03-06T02:44:32;20.37;;;12.10;;
14141;SDS011;7151;52.246;4.820;2024-03-06T02:46:58;18.00;;;11.57;;
14141;SDS011;7151;52.246;4.820;2024-03-06T02:49:24;17.47;;;10.93;;
14141;SDS011;7151;52.246;4.820;2024-03-06T02:51:50;19.40;;;10.93;;
14141;SDS011;7151;52.246;4.820;2024-03-06T02:54:16;16.47;;;11.27;;
14141;SDS011;7151;52.246;4.820;2024-03-06T02:56:42;16.77;;;12.53;;
14141;SDS011;7151;52.246;4.820;2024-03-06T02:59:07;14.33;;;10.63;;
14141;SDS011;7151;52.246;4.820;2024-03-06T03:01:34;14.53;;;11.30;;
14141;SDS011;7151;52.246;4.820;2024-03-06T03:03:59;13.17;;;10.03;;
14141;SDS011;7151;52.246;4.820;2024-03-06T03:06:25;15.60;;;10.73;;
14141;SDS011;7151;52.246;4.820;2024-03-06T03:08:51;14.97;;;10.90;;
14141;SDS011;7151;52.246;4.820;2024-03-06T03:11:16;18.20;;;10.80;;
14141;SDS011;7151;52.246;4.820;2024-03-06T03:13:42;17.47;;;11.47;;
14141;SDS011;7151;52.246;4.820;2024-03-06T03:16:15;14.97;;;10.73;;
14141;SDS011;7151;52.246;4.820;2024-03-06T03:18:45;18.23;;;11.37;;
14141;SDS011;7151;52.246;4.820;2024-03-06T03:21:10;14.53;;;11.67;;
14141;SDS011;7151;52.246;4.820;2024-03-06T03:23:37;17.50;;;11.23;;
14141;SDS011;7151;52.246;4.820;2024-03-06T03:26:04;15.93;;;11.60;;
14141;SDS011;7151;52.246;4.820;2024-03-06T03:28:30;14.90;;;11.13;;
14141;SDS011;7151;52.246;4.820;2024-03-06T03:30:56;15.93;;;11.60;;
14141;SDS011;7151;52.246;4.820;2024-03-06T03:33:21;18.10;;;11.33;;
14141;SDS011;7151;52.246;4.820;2024-03-06T03:35:47;17.57;;;11.60;;
14141;SDS011;7151;52.246;4.820;2024-03-06T03:38:13;19.77;;;11.87;;
14141;SDS011;7151;52.246;4.820;2024-03-06T03:40:39;17.50;;;11.13;;
14141;SDS011;7151;52.246;4.820;2024-03-06T03:43:04;16.63;;;12.13;;
14141;SDS011;7151;52.246;4.820;2024-03-06T03:45:32;14.83;;;10.87;;
14141;SDS011;7151;52.246;4.820;2024-03-06T03:47:59;20.00;;;12.03;;
14141;SDS011;7151;52.246;4.820;2024-03-06T03:50:25;19.37;;;11.83;;
14141;SDS011;7151;52.246;4.820;2024-03-06T03:52:51;17.30;;;12.20;;
14141;SDS011;7151;52.246;4.820;2024-03-06T03:55:16;17.63;;;12.00;;
14141;SDS011;7151;52.246;4.820;2024-03-06T03:57:42;18.53;;;11.80;;
14141;SDS011;7151;52.246;4.820;2024-03-06T04:00:08;16.07;;;10.80;;
14141;SDS011;7151;52.246;4.820;2024-03-06T04:02:36;17.27;;;12.00;;
14141;SDS011;7151;52.246;4.820;2024-03-06T04:05:02;18.87;;;11.67;;
14141;SDS011;7151;52.246;4.820;2024-03-06T04:07:28;19.90;;;11.33;;
14141;SDS011;7151;52.246;4.820;2024-03-06T04:09:53;15.33;;;10.83;;
14141;SDS011;7151;52.246;4.820;2024-03-06T04:12:19;15.70;;;11.10;;
14141;SDS011;7151;52.246;4.820;2024-03-06T04:14:44;17.63;;;11.60;;
14141;SDS011;7151;52.246;4.820;2024-03-06T04:17:10;16.17;;;11.43;;
14141;SDS011;7151;52.246;4.820;2024-03-06T04:19:36;21.23;;;12.90;;
14141;SDS011;7151;52.246;4.820;2024-03-06T04:22:01;18.87;;;11.37;;
14141;SDS011;7151;52.246;4.820;2024-03-06T04:24:27;16.50;;;11.60;;
14141;SDS011;7151;52.246;4.820;2024-03-06T04:26:54;16.30;;;11.87;;
14141;SDS011;7151;52.246;4.820;2024-03-06T04:29:19;15.37;;;11.40;;
14141;SDS011;7151;52.246;4.820;2024-03-06T04:31:45;17.27;;;11.30;;
14141;SDS011;7151;52.246;4.820;2024-03-06T04:34:10;16.50;;;11.33;;
14141;SDS011;7151;52.246;4.820;2024-03-06T04:36:36;17.43;;;11.47;;
14141;SDS011;7151;52.246;4.820;2024-03-06T04:39:02;17.60;;;12.50;;
14141;SDS011;7151;52.246;4.820;2024-03-06T04:41:32;17.97;;;11.00;;
14141;SDS011;7151;52.246;4.820;2024-03-06T04:43:58;16.63;;;11.80;;
14141;SDS011;7151;52.246;4.820;2024-03-06T04:46:25;17.57;;;11.07;;
14141;SDS011;7151;52.246;4.820;2024-03-06T04:48:51;19.97;;;11.73;;
14141;SDS011;7151;52.246;4.820;2024-03-06T04:51:17;15.53;;;12.00;;
14141;SDS011;7151;52.246;4.820;2024-03-06T04:53:44;17.60;;;11.17;;
14141;SDS011;7151;52.246;4.820;2024-03-06T04:56:10;18.97;;;12.00;;
14141;SDS011;7151;52.246;4.820;2024-03-06T04:58:37;17.30;;;11.37;;
14141;SDS011;7151;52.246;4.820;2024-03-06T05:01:03;17.10;;;11.33;;
14141;SDS011;7151;52.246;4.820;2024-03-06T05:03:29;16.13;;;10.47;;
14141;SDS011;7151;52.246;4.820;2024-03-06T05:05:54;16.83;;;11.70;;
14141;SDS011;7151;52.246;4.820;2024-03-06T05:08:20;19.77;;;11.83;;
14141;SDS011;7151;52.246;4.820;2024-03-06T05:10:46;16.80;;;11.50;;
14141;SDS011;7151;52.246;4.820;2024-03-06T05:13:11;18.73;;;11.20;;
14141;SDS011;7151;52.246;4.820;2024-03-06T05:15:37;17.83;;;11.23;;
14141;SDS011;7151;52.246;4.820;2024-03-06T05:18:04;16.80;;;11.87;;
14141;SDS011;7151;52.246;4.820;2024-03-06T05:20:30;18.43;;;11.83;;
14141;SDS011;7151;52.246;4.820;2024-03-06T05:22:56;21.20;;;12.77;;
14141;SDS011;7151;52.246;4.820;2024-03-06T05:25:22;20.87;;;13.57;;
14141;SDS011;7151;52.246;4.820;2024-03-06T05:27:47;24.40;;;13.77;;
14141;SDS011;7151;52.246;4.820;2024-03-06T05:30:13;22.63;;;13.27;;
14141;SDS011;7151;52.246;4.820;2024-03-06T05:32:39;18.87;;;13.17;;
14141;SDS011;7151;52.246;4.820;2024-03-06T05:35:06;17.93;;;12.23;;
14141;SDS011;7151;52.246;4.820;2024-03-06T05:37:35;20.27;;;11.77;;
14141;SDS011;7151;52.246;4.820;2024-03-06T05:40:00;18.53;;;12.53;;
14141;SDS011;7151;52.246;4.820;2024-03-06T05:42:29;22.00;;;13.70;;
14141;SDS011;7151;52.246;4.820;2024-03-06T05:44:56;23.30;;;14.03;;
14141;SDS011;7151;52.246;4.820;2024-03-06T05:47:25;28.63;;;14.07;;
14141;SDS011;7151;52.246;4.820;2024-03-06T05:49:53;21.50;;;13.77;;
14141;SDS011;7151;52.246;4.820;2024-03-06T05:52:19;17.70;;;12.40;;
14141;SDS011;7151;52.246;4.820;2024-03-06T05:54:44;18.60;;;12.27;;
14141;SDS011;7151;52.246;4.820;2024-03-06T05:57:10;14.70;;;11.27;;
14141;SDS011;7151;52.246;4.820;2024-03-06T05:59:36;17.50;;;11.43;;
14141;SDS011;7151;52.246;4.820;2024-03-06T06:02:02;17.73;;;11.83;;
14141;SDS011;7151;52.246;4.820;2024-03-06T06:04:29;17.90;;;11.90;;
14141;SDS011;7151;52.246;4.820;2024-03-06T06:06:54;17.70;;;11.90;;
14141;SDS011;7151;52.246;4.820;2024-03-06T06:09:20;18.53;;;13.17;;
14141;SDS011;7151;52.246;4.820;2024-03-06T06:11:45;19.60;;;12.73;;
14141;SDS011;7151;52.246;4.820;2024-03-06T06:14:12;16.60;;;11.23;;
14141;SDS011;7151;52.246;4.820;2024-03-06T06:16:38;16.37;;;12.13;;
14141;SDS011;7151;52.246;4.820;2024-03-06T06:19:06;18.27;;;12.30;;
14141;SDS011;7151;52.246;4.820;2024-03-06T06:21:32;20.73;;;13.20;;
14141;SDS011;7151;52.246;4.820;2024-03-06T06:23:58;18.23;;;12.40;;
14141;SDS011;7151;52.246;4.820;2024-03-06T06:26:23;20.70;;;12.50;;
14141;SDS011;7151;52.246;4.820;2024-03-06T06:28:49;19.57;;;12.47;;
14141;SDS011;7151;52.246;4.820;2024-03-06T06:31:15;16.00;;;10.63;;
14141;SDS011;7151;52.246;4.820;2024-03-06T06:33:41;18.63;;;13.20;;
14141;SDS011;7151;52.246;4.820;2024-03-06T06:36:06;22.27;;;13.90;;
14141;SDS011;7151;52.246;4.820;2024-03-06T06:38:32;18.87;;;12.60;;
14141;SDS011;7151;52.246;4.820;2024-03-06T06:40:58;18.67;;;12.80;;
14141;SDS011;7151;52.246;4.820;2024-03-06T06:43:23;22.47;;;12.63;;
14141;SDS011;7151;52.246;4.820;2024-03-06T06:45:49;19.00;;;13.27;;
14141;SDS011;7151;52.246;4.820;2024-03-06T06:48:15;20.27;;;13.23;;
14141;SDS011;7151;52.246;4.820;2024-03-06T06:50:41;20.87;;;13.60;;
14141;SDS011;7151;52.246;4.820;2024-03-06T06:53:07;18.90;;;14.57;;
14141;SDS011;7151;52.246;4.820;2024-03-06T06:55:32;22.53;;;15.03;;
14141;SDS011;7151;52.246;4.820;2024-03-06T06:57:58;19.70;;;15.63;;
14141;SDS011;7151;52.246;4.820;2024-03-06T07:00:24;22.93;;;16.80;;
14141;SDS011;7151;52.246;4.820;2024-03-06T07:02:50;22.20;;;16.90;;
14141;SDS011;7151;52.246;4.820;2024-03-06T07:05:16;23.17;;;15.90;;
14141;SDS011;7151;52.246;4.820;2024-03-06T07:07:41;20.80;;;15.00;;
14141;SDS011;7151;52.246;4.820;2024-03-06T07:10:07;23.03;;;16.17;;
14141;SDS011;7151;52.246;4.820;2024-03-06T07:12:33;19.77;;;15.23;;
14141;SDS011;7151;52.246;4.820;2024-03-06T07:15:01;22.67;;;16.03;;
14141;SDS011;7151;52.246;4.820;2024-03-06T07:17:28;22.67;;;16.27;;
14141;SDS011;7151;52.246;4.820;2024-03-06T07:19:53;23.30;;;15.60;;
14141;SDS011;7151;52.246;4.820;2024-03-06T07:22:19;20.67;;;15.23;;
14141;SDS011;7151;52.246;4.820;2024-03-06T07:24:44;22.80;;;14.07;;
14141;SDS011;7151;52.246;4.820;2024-03-06T07:27:10;22.00;;;13.90;;
14141;SDS011;7151;52.246;4.820;2024-03-06T07:29:36;19.80;;;14.13;;
14141;SDS011;7151;52.246;4.820;2024-03-06T07:32:02;22.97;;;14.83;;
14141;SDS011;7151;52.246;4.820;2024-03-06T07:34:30;18.90;;;13.53;;
14141;SDS011;7151;52.246;4.820;2024-03-06T07:36:56;16.23;;;12.60;;
14141;SDS011;7151;52.246;4.820;2024-03-06T07:39:45;17.37;;;12.70;;
14141;SDS011;7151;52.246;4.820;2024-03-06T07:42:10;22.63;;;12.67;;
14141;SDS011;7151;52.246;4.820;2024-03-06T07:44:36;20.63;;;12.57;;
14141;SDS011;7151;52.246;4.820;2024-03-06T07:47:02;18.80;;;13.07;;
14141;SDS011;7151;52.246;4.820;2024-03-06T07:49:28;18.97;;;13.00;;
14141;SDS011;7151;52.246;4.820;2024-03-06T07:51:54;20.10;;;12.50;;
14141;SDS011;7151;52.246;4.820;2024-03-06T07:54:19;19.27;;;13.20;;
14141;SDS011;7151;52.246;4.820;2024-03-06T07:56:45;18.43;;;13.83;;
14141;SDS011;7151;52.246;4.820;2024-03-06T07:59:12;23.37;;;14.73;;
14141;SDS011;7151;52.246;4.820;2024-03-06T08:01:37;18.83;;;12.87;;
14141;SDS011;7151;52.246;4.820;2024-03-06T08:04:03;18.73;;;13.50;;
14141;SDS011;7151;52.246;4.820;2024-03-06T08:06:29;19.50;;;13.67;;
14141;SDS011;7151;52.246;4.820;2024-03-06T08:08:58;19.50;;;13.70;;
14141;SDS011;7151;52.246;4.820;2024-03-06T08:11:24;20.13;;;13.77;;
14141;SDS011;7151;52.246;4.820;2024-03-06T08:13:49;20.97;;;13.00;;
14141;SDS011;7151;52.246;4.820;2024-03-06T08:16:21;18.73;;;12.57;;
14141;SDS011;7151;52.246;4.820;2024-03-06T08:18:47;23.20;;;14.47;;
14141;SDS011;7151;52.246;4.820;2024-03-06T08:21:12;18.93;;;13.43;;
14141;SDS011;7151;52.246;4.820;2024-03-06T08:23:38;24.20;;;15.03;;
14141;SDS011;7151;52.246;4.820;2024-03-06T08:26:04;21.83;;;14.07;;
14141;SDS011;7151;52.246;4.820;2024-03-06T08:28:29;21.37;;;14.07;;
14141;SDS011;7151;52.246;4.820;2024-03-06T08:30:55;23.83;;;13.93;;
14141;SDS011;7151;52.246;4.820;2024-03-06T08:33:21;21.30;;;13.53;;
14141;SDS011;7151;52.246;4.820;2024-03-06T08:35:47;21.33;;;13.23;;
14141;SDS011;7151;52.246;4.820;2024-03-06T08:38:13;20.00;;;12.30;;
14141;SDS011;7151;52.246;4.820;2024-03-06T08:40:39;19.43;;;12.83;;
14141;SDS011;7151;52.246;4.820;2024-03-06T08:43:06;18.83;;;11.83;;
14141;SDS011;7151;52.246;4.820;2024-03-06T08:45:34;22.00;;;12.53;;
14141;SDS011;7151;52.246;4.820;2024-03-06T08:47:59;19.73;;;12.97;;
14141;SDS011;7151;52.246;4.820;2024-03-06T08:50:25;19.00;;;12.03;;
14141;SDS011;7151;52.246;4.820;2024-03-06T08:52:51;20.00;;;12.87;;
14141;SDS011;7151;52.246;4.820;2024-03-06T08:55:16;19.27;;;12.47;;
14141;SDS011;7151;52.246;4.820;2024-03-06T08:57:42;21.13;;;12.63;;
14141;SDS011;7151;52.246;4.820;2024-03-06T09:00:08;18.67;;;12.27;;
14141;SDS011;7151;52.246;4.820;2024-03-06T09:02:37;19.53;;;13.20;;
14141;SDS011;7151;52.246;4.820;2024-03-06T09:05:04;19.20;;;12.90;;
14141;SDS011;7151;52.246;4.820;2024-03-06T09:07:30;20.47;;;13.73;;
14141;SDS011;7151;52.246;4.820;2024-03-06T09:09:56;18.87;;;11.83;;
14141;SDS011;7151;52.246;4.820;2024-03-06T09:12:22;20.53;;;12.70;;
14141;SDS011;7151;52.246;4.820;2024-03-06T09:14:47;21.57;;;13.33;;
14141;SDS011;7151;52.246;4.820;2024-03-06T09:17:13;17.60;;;11.77;;
14141;SDS011;7151;52.246;4.820;2024-03-06T09:19:39;19.00;;;13.90;;
14141;SDS011;7151;52.246;4.820;2024-03-06T09:22:05;23.43;;;12.70;;
14141;SDS011;7151;52.246;4.820;2024-03-06T09:24:32;18.60;;;13.43;;
14141;SDS011;7151;52.246;4.820;2024-03-06T09:27:03;18.87;;;12.90;;
14141;SDS011;7151;52.246;4.820;2024-03-06T09:29:29;16.67;;;12.37;;
14141;SDS011;7151;52.246;4.820;2024-03-06T09:31:55;20.80;;;12.13;;
14141;SDS011;7151;52.246;4.820;2024-03-06T09:34:21;18.03;;;12.10;;
14141;SDS011;7151;52.246;4.820;2024-03-06T09:36:47;17.37;;;12.13;;
14141;SDS011;7151;52.246;4.820;2024-03-06T09:39:13;18.27;;;11.83;;
14141;SDS011;7151;52.246;4.820;2024-03-06T09:41:44;16.77;;;12.20;;
14141;SDS011;7151;52.246;4.820;2024-03-06T09:44:11;17.77;;;11.83;;
14141;SDS011;7151;52.246;4.820;2024-03-06T09:46:38;18.00;;;11.40;;
14141;SDS011;7151;52.246;4.820;2024-03-06T09:49:07;18.03;;;11.97;;
14141;SDS011;7151;52.246;4.820;2024-03-06T09:51:34;17.07;;;12.47;;
14141;SDS011;7151;52.246;4.820;2024-03-06T09:54:01;15.37;;;10.50;;
14141;SDS011;7151;52.246;4.820;2024-03-06T09:56:28;15.50;;;11.07;;
14141;SDS011;7151;52.246;4.820;2024-03-06T09:58:54;17.07;;;10.90;;
14141;SDS011;7151;52.246;4.820;2024-03-06T10:01:19;14.47;;;10.40;;
14141;SDS011;7151;52.246;4.820;2024-03-06T10:03:47;15.13;;;9.07;;
14141;SDS011;7151;52.246;4.820;2024-03-06T10:06:13;17.13;;;10.83;;
14141;SDS011;7151;52.246;4.820;2024-03-06T10:08:41;12.80;;;9.90;;
14141;SDS011;7151;52.246;4.820;2024-03-06T10:11:08;14.40;;;10.03;;
14141;SDS011;7151;52.246;4.820;2024-03-06T10:13:35;13.43;;;9.70;;
14141;SDS011;7151;52.246;4.820;2024-03-06T10:16:02;13.93;;;9.70;;
14141;SDS011;7151;52.246;4.820;2024-03-06T10:18:29;11.47;;;9.03;;
14141;SDS011;7151;52.246;4.820;2024-03-06T10:20:56;13.63;;;10.43;;
14141;SDS011;7151;52.246;4.820;2024-03-06T10:23:22;11.53;;;8.70;;
14141;SDS011;7151;52.246;4.820;2024-03-06T10:25:49;12.77;;;9.83;;
14141;SDS011;7151;52.246;4.820;2024-03-06T10:28:21;14.83;;;9.07;;
14141;SDS011;7151;52.246;4.820;2024-03-06T10:30:48;11.47;;;8.77;;
14141;SDS011;7151;52.246;4.820;2024-03-06T10:33:15;15.33;;;8.80;;
14141;SDS011;7151;52.246;4.820;2024-03-06T10:35:44;14.67;;;9.43;;
14141;SDS011;7151;52.246;4.820;2024-03-06T10:38:12;16.13;;;9.27;;
14141;SDS011;7151;52.246;4.820;2024-03-06T10:40:38;15.87;;;10.20;;
14141;SDS011;7151;52.246;4.820;2024-03-06T10:43:06;15.87;;;10.40;;
14141;SDS011;7151;52.246;4.820;2024-03-06T10:45:48;14.33;;;9.10;;
14141;SDS011;7151;52.246;4.820;2024-03-06T10:48:15;14.53;;;8.83;;
14141;SDS011;7151;52.246;4.820;2024-03-06T10:50:42;13.47;;;9.53;;
14141;SDS011;7151;52.246;4.820;2024-03-06T10:53:14;12.77;;;9.07;;
14141;SDS011;7151;52.246;4.820;2024-03-06T10:55:45;13.27;;;8.77;;
14141;SDS011;7151;52.246;4.820;2024-03-06T10:58:11;12.90;;;9.20;;
14141;SDS011;7151;52.246;4.820;2024-03-06T11:00:38;14.00;;;9.57;;
14141;SDS011;7151;52.246;4.820;2024-03-06T11:03:11;11.93;;;8.57;;
14141;SDS011;7151;52.246;4.820;2024-03-06T11:05:39;10.37;;;7.73;;
14141;SDS011;7151;52.246;4.820;2024-03-06T11:08:06;12.20;;;7.93;;
14141;SDS011;7151;52.246;4.820;2024-03-06T11:10:33;14.50;;;7.97;;
14141;SDS011;7151;52.246;4.820;2024-03-06T11:13:00;11.27;;;8.17;;
14141;SDS011;7151;52.246;4.820;2024-03-06T11:15:28;10.63;;;8.07;;
14141;SDS011;7151;52.246;4.820;2024-03-06T11:17:54;12.93;;;8.03;;
14141;SDS011;7151;52.246;4.820;2024-03-06T11:20:22;8.57;;;7.00;;
14141;SDS011;7151;52.246;4.820;2024-03-06T11:28:19;8.77;;;6.43;;
14141;SDS011;7151;52.246;4.820;2024-03-06T11:30:46;8.53;;;6.10;;
14141;SDS011;7151;52.246;4.820;2024-03-06T11:33:23;13.90;;;7.93;;
14141;SDS011;7151;52.246;4.820;2024-03-06T11:38:46;8.13;;;6.40;;
14141;SDS011;7151;52.246;4.820;2024-03-06T11:41:12;11.07;;;6.43;;
14141;SDS011;7151;52.246;4.820;2024-03-06T11:43:42;6.80;;;5.93;;
14141;SDS011;7151;52.246;4.820;2024-03-06T11:46:08;10.77;;;6.03;;
14141;SDS011;7151;52.246;4.820;2024-03-06T11:48:35;9.07;;;5.87;;
14141;SDS011;7151;52.246;4.820;2024-03-06T11:51:01;5.33;;;4.70;;
14141;SDS011;7151;52.246;4.820;2024-03-06T11:53:30;8.17;;;6.37;;
14141;SDS011;7151;52.246;4.820;2024-03-06T11:55:59;7.23;;;5.17;;
14141;SDS011;7151;52.246;4.820;2024-03-06T11:58:25;6.13;;;4.87;;
14141;SDS011;7151;52.246;4.820;2024-03-06T12:00:50;8.47;;;4.63;;
14141;SDS011;7151;52.246;4.820;2024-03-06T12:03:17;9.07;;;5.27;;
14141;SDS011;7151;52.246;4.820;2024-03-06T12:05:44;7.10;;;4.83;;
14141;SDS011;7151;52.246;4.820;2024-03-06T12:08:11;9.17;;;5.07;;
14141;SDS011;7151;52.246;4.820;2024-03-06T12:10:37;5.77;;;4.27;;
14141;SDS011;7151;52.246;4.820;2024-03-06T12:13:06;10.43;;;5.80;;
14141;SDS011;7151;52.246;4.820;2024-03-06T12:15:32;9.60;;;6.00;;
14141;SDS011;7151;52.246;4.820;2024-03-06T12:17:58;8.87;;;5.53;;
14141;SDS011;7151;52.246;4.820;2024-03-06T12:20:24;8.20;;;5.73;;
14141;SDS011;7151;52.246;4.820;2024-03-06T12:25:20;8.23;;;5.57;;
14141;SDS011;7151;52.246;4.820;2024-03-06T12:27:47;8.53;;;5.70;;
14141;SDS011;7151;52.246;4.820;2024-03-06T12:30:20;7.73;;;5.07;;
14141;SDS011;7151;52.246;4.820;2024-03-06T12:32:57;9.20;;;5.87;;
14141;SDS011;7151;52.246;4.820;2024-03-06T12:35:27;7.27;;;5.07;;
14141;SDS011;7151;52.246;4.820;2024-03-06T12:37:52;6.80;;;5.10;;
14141;SDS011;7151;52.246;4.820;2024-03-06T12:40:19;5.27;;;3.83;;
14141;SDS011;7151;52.246;4.820;2024-03-06T12:42:45;5.77;;;4.40;;
14141;SDS011;7151;52.246;4.820;2024-03-06T12:45:11;7.43;;;4.13;;
14141;SDS011;7151;52.246;4.820;2024-03-06T12:47:40;6.13;;;4.00;;
14141;SDS011;7151;52.246;4.820;2024-03-06T12:50:10;3.50;;;2.27;;
14141;SDS011;7151;52.246;4.820;2024-03-06T12:52:37;5.50;;;3.10;;
14141;SDS011;7151;52.246;4.820;2024-03-06T12:55:03;4.53;;;2.83;;
14141;SDS011;7151;52.246;4.820;2024-03-06T12:57:32;5.80;;;2.00;;
14141;SDS011;7151;52.246;4.820;2024-03-06T13:00:00;3.10;;;2.50;;
14141;SDS011;7151;52.246;4.820;2024-03-06T13:02:25;5.07;;;3.33;;
14141;SDS011;7151;52.246;4.820;2024-03-06T13:04:51;8.30;;;3.57;;
14141;SDS011;7151;52.246;4.820;2024-03-06T13:07:19;4.03;;;3.23;;
14141;SDS011;7151;52.246;4.820;2024-03-06T13:09:45;8.83;;;4.27;;
14141;SDS011;7151;52.246;4.820;2024-03-06T13:12:11;6.87;;;4.17;;
14141;SDS011;7151;52.246;4.820;2024-03-06T13:14:36;8.50;;;4.33;;
14141;SDS011;7151;52.246;4.820;2024-03-06T13:17:02;5.33;;;3.60;;
14141;SDS011;7151;52.246;4.820;2024-03-06T13:19:28;5.53;;;3.97;;
14141;SDS011;7151;52.246;4.820;2024-03-06T13:21:54;6.93;;;3.13;;
14141;SDS011;7151;52.246;4.820;2024-03-06T13:24:20;4.30;;;2.93;;
14141;SDS011;7151;52.246;4.820;2024-03-06T13:26:46;4.40;;;2.97;;
14141;SDS011;7151;52.246;4.820;2024-03-06T13:29:12;4.47;;;3.50;;
14141;SDS011;7151;52.246;4.820;2024-03-06T13:31:38;5.23;;;3.60;;
14141;SDS011;7151;52.246;4.820;2024-03-06T13:34:03;5.20;;;3.40;;
14141;SDS011;7151;52.246;4.820;2024-03-06T13:36:29;4.40;;;3.50;;
14141;SDS011;7151;52.246;4.820;2024-03-06T13:38:55;4.87;;;3.50;;
14141;SDS011;7151;52.246;4.820;2024-03-06T13:41:21;3.83;;;3.50;;
14141;SDS011;7151;52.246;4.820;2024-03-06T13:43:47;4.73;;;3.20;;
14141;SDS011;7151;52.246;4.820;2024-03-06T13:46:12;4.27;;;3.27;;
14141;SDS011;7151;52.246;4.820;2024-03-06T13:48:38;6.90;;;3.83;;
14141;SDS011;7151;52.246;4.820;2024-03-06T13:51:04;8.17;;;3.10;;
14141;SDS011;7151;52.246;4.820;2024-03-06T13:53:30;5.17;;;3.37;;
14141;SDS011;7151;52.246;4.820;2024-03-06T13:55:56;4.37;;;3.83;;
14141;SDS011;7151;52.246;4.820;2024-03-06T13:58:22;4.83;;;3.10;;
14141;SDS011;7151;52.246;4.820;2024-03-06T14:00:48;5.87;;;3.87;;
14141;SDS011;7151;52.246;4.820;2024-03-06T14:03:13;5.23;;;3.37;;
14141;SDS011;7151;52.246;4.820;2024-03-06T14:05:39;4.47;;;3.17;;
14141;SDS011;7151;52.246;4.820;2024-03-06T14:08:05;6.07;;;3.10;;
14141;SDS011;7151;52.246;4.820;2024-03-06T14:10:31;5.07;;;3.00;;
14141;SDS011;7151;52.246;4.820;2024-03-06T14:13:00;3.47;;;2.90;;
14141;SDS011;7151;52.246;4.820;2024-03-06T14:15:26;4.47;;;2.83;;
14141;SDS011;7151;52.246;4.820;2024-03-06T14:17:52;4.17;;;3.27;;
14141;SDS011;7151;52.246;4.820;2024-03-06T14:20:20;5.57;;;3.00;;
14141;SDS011;7151;52.246;4.820;2024-03-06T14:22:47;4.03;;;3.20;;
14141;SDS011;7151;52.246;4.820;2024-03-06T14:25:13;3.03;;;2.67;;
14141;SDS011;7151;52.246;4.820;2024-03-06T14:27:39;4.07;;;2.80;;
14141;SDS011;7151;52.246;4.820;2024-03-06T14:30:05;6.03;;;3.17;;
14141;SDS011;7151;52.246;4.820;2024-03-06T14:32:36;3.67;;;2.63;;
14141;SDS011;7151;52.246;4.820;2024-03-06T14:35:02;3.07;;;2.67;;
14141;SDS011;7151;52.246;4.820;2024-03-06T14:37:28;5.03;;;3.40;;
14141;SDS011;7151;52.246;4.820;2024-03-06T14:39:54;3.90;;;2.80;;
14141;SDS011;7151;52.246;4.820;2024-03-06T14:42:19;5.53;;;2.93;;
14141;SDS011;7151;52.246;4.820;2024-03-06T14:44:45;5.30;;;2.73;;
14141;SDS011;7151;52.246;4.820;2024-03-06T14:47:11;4.93;;;3.60;;
14141;SDS011;7151;52.246;4.820;2024-03-06T14:49:37;4.00;;;2.90;;